createdAt,value
2022-12-22T00:01:59.396Z,1.88
2022-12-22T00:04:44.575Z,2.00
2022-12-22T00:07:29.829Z,1.60
2022-12-22T00:10:14.974Z,2.40
2022-12-22T00:12:59.984Z,2.20
2022-12-22T00:15:47.559Z,2.50
2022-12-22T00:18:34.114Z,2.65
2022-12-22T00:21:19.769Z,2.33
2022-12-22T00:24:04.655Z,2.53
2022-12-22T00:26:51.943Z,1.88
2022-12-22T00:29:37.273Z,2.10
2022-12-22T00:32:23.013Z,2.42
2022-12-22T00:35:08.669Z,1.90
2022-12-22T00:37:55.835Z,2.40
2022-12-22T00:40:45.559Z,2.38
2022-12-22T00:43:31.202Z,1.92
2022-12-22T00:46:18.632Z,2.17
2022-12-22T00:49:04.254Z,2.22
2022-12-22T00:51:50.831Z,1.83
2022-12-22T00:54:38.876Z,2.50
2022-12-22T00:57:24.444Z,1.92
2022-12-22T01:00:11.136Z,2.05
2022-12-22T01:02:56.300Z,2.05
2022-12-22T01:05:42.104Z,2.10
2022-12-22T01:08:29.361Z,1.80
2022-12-22T01:11:14.737Z,1.80
2022-12-22T01:14:00.127Z,1.58
2022-12-22T01:16:45.443Z,1.30
2022-12-22T01:19:30.383Z,1.30
2022-12-22T01:22:15.815Z,1.30
2022-12-22T01:25:03.645Z,1.10
2022-12-22T01:27:48.883Z,1.27
2022-12-22T01:30:35.393Z,1.20
2022-12-22T01:33:20.649Z,1.25
2022-12-22T01:36:05.980Z,0.95
2022-12-22T01:38:50.962Z,1.15
2022-12-22T01:41:39.038Z,1.20
2022-12-22T01:44:33.589Z,0.93
2022-12-22T01:47:49.898Z,1.20
2022-12-22T01:50:41.271Z,1.30
2022-12-22T01:53:31.159Z,1.30
2022-12-22T01:56:17.889Z,0.98
2022-12-22T01:59:07.994Z,1.20
2022-12-22T02:01:54.971Z,0.82
2022-12-22T02:04:44.746Z,1.10
2022-12-22T02:07:48.014Z,1.08
2022-12-22T02:10:56.751Z,0.93
2022-12-22T02:13:41.875Z,0.90
2022-12-22T02:16:33.190Z,1.00
2022-12-22T02:19:27.014Z,1.42
2022-12-22T02:22:34.199Z,1.30
2022-12-22T02:25:29.191Z,1.17
2022-12-22T02:28:15.204Z,1.13
2022-12-22T02:31:01.108Z,1.50
2022-12-22T02:33:46.503Z,1.60
2022-12-22T02:36:55.186Z,1.73
2022-12-22T02:39:56.816Z,1.70
2022-12-22T02:42:55.187Z,1.80
2022-12-22T02:45:49.144Z,1.45
2022-12-22T02:48:52.696Z,1.60
2022-12-22T02:51:42.758Z,1.60
2022-12-22T02:54:29.039Z,1.70
2022-12-22T02:57:14.475Z,1.40
2022-12-22T02:59:59.855Z,1.75
2022-12-22T03:02:45.208Z,1.63
2022-12-22T03:05:30.131Z,1.80
2022-12-22T03:08:16.074Z,1.38
2022-12-22T03:11:01.326Z,1.70
2022-12-22T03:13:46.218Z,1.73
2022-12-22T03:16:31.676Z,2.15
2022-12-22T03:19:16.867Z,1.92
2022-12-22T03:22:02.117Z,1.60
2022-12-22T03:24:47.113Z,1.52
2022-12-22T03:27:13.595Z,2.05
2022-12-22T03:29:40.066Z,2.08
2022-12-22T03:32:06.578Z,2.10
2022-12-22T03:34:33.402Z,2.00
2022-12-22T03:37:02.468Z,1.88
2022-12-22T03:39:29.065Z,2.13
2022-12-22T03:42:14.405Z,2.00
2022-12-22T03:44:59.366Z,2.28
2022-12-22T03:47:25.903Z,2.08
2022-12-22T03:49:52.377Z,2.03
2022-12-22T03:52:18.840Z,2.50
2022-12-22T03:54:45.417Z,2.10
2022-12-22T03:57:11.935Z,1.90
2022-12-22T03:59:38.453Z,2.40
2022-12-22T04:02:07.153Z,2.67
2022-12-22T04:04:34.047Z,2.65
2022-12-22T04:07:00.597Z,2.17
2022-12-22T04:09:27.718Z,2.40
2022-12-22T04:12:12.925Z,2.00
2022-12-22T04:14:39.533Z,2.15
2022-12-22T04:17:07.029Z,2.42
2022-12-22T04:19:33.860Z,2.78
2022-12-22T04:22:01.131Z,2.70
2022-12-22T04:24:27.771Z,2.45
2022-12-22T04:26:54.255Z,2.78
2022-12-22T04:29:20.739Z,2.67
2022-12-22T04:31:47.312Z,2.88
2022-12-22T04:34:13.890Z,2.65
2022-12-22T04:36:40.347Z,3.10
2022-12-22T04:39:06.850Z,2.90
2022-12-22T04:41:33.426Z,2.65
2022-12-22T04:43:59.914Z,2.45
2022-12-22T04:46:26.532Z,2.42
2022-12-22T04:48:57.849Z,2.80
2022-12-22T04:51:26.910Z,2.53
2022-12-22T04:53:53.438Z,2.40
2022-12-22T04:56:19.951Z,2.58
2022-12-22T04:58:46.633Z,2.40
2022-12-22T05:01:16.736Z,2.60
2022-12-22T05:03:43.630Z,2.70
2022-12-22T05:06:11.121Z,2.50
2022-12-22T05:08:38.241Z,2.58
2022-12-22T05:11:05.113Z,2.70
2022-12-22T05:13:32.414Z,2.92
2022-12-22T05:16:11.596Z,2.53
2022-12-22T05:18:39.312Z,2.30
2022-12-22T05:21:18.850Z,2.22
2022-12-22T05:23:45.502Z,2.13
2022-12-22T05:26:14.504Z,2.20
2022-12-22T05:28:42.796Z,2.17
2022-12-22T05:31:15.983Z,2.10
2022-12-22T05:33:42.630Z,2.50
2022-12-22T05:36:09.170Z,2.47
2022-12-22T05:38:35.881Z,2.00
2022-12-22T05:41:04.599Z,2.17
2022-12-22T05:43:35.167Z,2.40
2022-12-22T05:46:05.917Z,2.45
2022-12-22T05:48:37.840Z,2.33
2022-12-22T05:51:05.649Z,2.17
2022-12-22T05:53:32.152Z,1.85
2022-12-22T05:55:58.710Z,1.70
2022-12-22T05:58:25.358Z,1.77
2022-12-22T06:00:51.903Z,1.73
2022-12-22T06:03:18.428Z,2.08
2022-12-22T06:05:44.987Z,1.70
2022-12-22T06:08:11.569Z,1.98
2022-12-22T06:10:38.220Z,1.88
2022-12-22T06:13:04.655Z,2.25
2022-12-22T06:15:31.117Z,2.22
2022-12-22T06:17:58.565Z,2.33
2022-12-22T06:20:25.010Z,2.28
2022-12-22T06:22:51.657Z,1.88
2022-12-22T06:25:19.074Z,2.38
2022-12-22T06:27:47.302Z,2.22
2022-12-22T06:30:15.503Z,2.00
2022-12-22T06:32:42.080Z,2.15
2022-12-22T06:35:09.704Z,2.28
2022-12-22T06:37:36.406Z,2.25
2022-12-22T06:40:04.003Z,1.92
2022-12-22T06:42:48.981Z,2.08
2022-12-22T06:45:15.729Z,2.55
2022-12-22T06:47:42.242Z,3.40
2022-12-22T06:50:09.121Z,4.30
2022-12-22T06:52:36.047Z,3.75
2022-12-22T06:55:03.079Z,2.83
2022-12-22T06:57:29.848Z,2.47
2022-12-22T06:59:57.847Z,3.28
2022-12-22T07:02:25.051Z,2.53
2022-12-22T07:04:51.980Z,2.67
2022-12-22T07:07:18.469Z,2.15
2022-12-22T07:09:45.362Z,2.47
2022-12-22T07:12:13.934Z,2.28
2022-12-22T07:14:40.597Z,2.40
2022-12-22T07:17:07.173Z,2.55
2022-12-22T07:19:33.624Z,2.38
2022-12-22T07:22:02.794Z,2.47
2022-12-22T07:24:29.406Z,2.42
2022-12-22T07:26:56.146Z,2.25
2022-12-22T07:29:23.205Z,2.30
2022-12-22T07:31:49.958Z,2.10
2022-12-22T07:34:16.693Z,2.00
2022-12-22T07:36:43.310Z,2.05
2022-12-22T07:39:10.099Z,1.95
2022-12-22T07:41:55.335Z,1.85
2022-12-22T07:44:22.123Z,2.28
2022-12-22T07:46:48.676Z,2.08
2022-12-22T07:49:50.692Z,2.05
2022-12-22T07:52:17.172Z,1.90
2022-12-22T07:54:43.632Z,1.85
2022-12-22T07:57:10.141Z,2.10
2022-12-22T07:59:36.767Z,2.10
2022-12-22T08:02:03.494Z,2.30
2022-12-22T08:04:30.142Z,2.38
2022-12-22T08:06:56.790Z,2.30
2022-12-22T08:09:23.311Z,1.90
2022-12-22T08:11:50.326Z,2.28
2022-12-22T08:14:17.090Z,1.83
2022-12-22T08:16:43.612Z,2.10
2022-12-22T08:19:10.168Z,1.90
2022-12-22T08:21:36.886Z,2.28
2022-12-22T08:24:03.491Z,2.53
2022-12-22T08:26:40.645Z,2.72
2022-12-22T08:29:12.764Z,2.58
2022-12-22T08:31:40.673Z,2.80
2022-12-22T08:34:10.222Z,2.67
2022-12-22T08:36:44.851Z,2.40
2022-12-22T08:39:12.582Z,2.55
2022-12-22T08:41:51.457Z,2.50
2022-12-22T08:44:22.853Z,2.33
2022-12-22T08:46:50.511Z,2.45
2022-12-22T08:49:17.484Z,2.20
2022-12-22T08:51:45.523Z,2.30
2022-12-22T08:54:12.540Z,2.53
2022-12-22T08:56:39.415Z,2.58
2022-12-22T08:59:07.978Z,2.17
2022-12-22T09:01:36.769Z,1.95
2022-12-22T09:04:04.720Z,2.10
2022-12-22T09:06:38.592Z,2.20
2022-12-22T09:09:09.399Z,2.40
2022-12-22T09:11:36.021Z,2.15
2022-12-22T09:14:04.339Z,2.10
2022-12-22T09:16:32.567Z,2.22
2022-12-22T09:18:59.703Z,2.30
2022-12-22T09:21:26.604Z,1.95
2022-12-22T09:23:54.741Z,2.58
2022-12-22T09:26:23.256Z,2.28
2022-12-22T09:28:50.960Z,2.38
2022-12-22T09:31:19.848Z,2.53
2022-12-22T09:33:47.225Z,2.42
2022-12-22T09:36:17.160Z,2.70
2022-12-22T09:38:44.376Z,2.72
2022-12-22T09:41:31.883Z,2.47
2022-12-22T09:44:04.257Z,2.97
2022-12-22T09:46:34.565Z,2.90
2022-12-22T09:49:01.252Z,2.55
2022-12-22T09:51:29.325Z,2.88
2022-12-22T09:54:00.601Z,3.45
2022-12-22T09:56:28.580Z,3.30
2022-12-22T09:58:55.558Z,3.30
2022-12-22T10:01:56.442Z,3.08
2022-12-22T10:05:00.338Z,3.03
2022-12-22T10:07:35.633Z,3.08
2022-12-22T10:10:25.287Z,3.63
2022-12-22T10:13:00.766Z,3.00
2022-12-22T10:15:33.772Z,3.88
2022-12-22T10:18:22.075Z,3.80
2022-12-22T10:21:11.700Z,3.95
2022-12-22T10:23:41.912Z,3.63
2022-12-22T10:26:31.298Z,3.65
2022-12-22T10:29:07.820Z,3.60
2022-12-22T10:31:37.080Z,3.80
2022-12-22T10:34:17.752Z,4.30
2022-12-22T10:36:49.338Z,4.10
2022-12-22T10:39:24.481Z,4.45
2022-12-22T10:41:55.151Z,4.55
2022-12-22T10:44:26.163Z,4.25
2022-12-22T10:46:55.639Z,3.90
2022-12-22T10:49:29.252Z,4.13
2022-12-22T10:52:09.839Z,4.00
2022-12-22T10:54:36.789Z,3.50
2022-12-22T10:57:14.735Z,3.70
2022-12-22T10:59:50.571Z,3.88
2022-12-22T11:02:28.390Z,3.60
2022-12-22T11:05:04.944Z,3.90
2022-12-22T11:07:37.823Z,3.63
2022-12-22T11:10:33.599Z,3.78
2022-12-22T11:13:37.393Z,4.35
2022-12-22T11:16:14.309Z,3.97
2022-12-22T11:18:49.736Z,4.07
2022-12-22T11:21:28.763Z,3.80
2022-12-22T11:24:25.369Z,4.22
2022-12-22T11:27:01.187Z,4.03
2022-12-22T11:29:48.362Z,3.88
2022-12-22T11:32:33.826Z,4.03
2022-12-22T11:35:29.049Z,4.28
2022-12-22T11:38:06.555Z,4.47
2022-12-22T11:40:40.031Z,4.13
2022-12-22T11:43:24.152Z,4.20
2022-12-22T11:45:59.554Z,4.00
2022-12-22T11:48:39.988Z,4.10
2022-12-22T11:51:22.224Z,4.60
2022-12-22T11:54:34.169Z,4.63
2022-12-22T11:57:23.947Z,4.53
2022-12-22T12:00:11.777Z,4.47
2022-12-22T12:03:10.999Z,4.60
2022-12-22T12:05:55.941Z,4.43
2022-12-22T12:08:49.552Z,4.53
2022-12-22T12:11:41.491Z,4.47
2022-12-22T12:14:20.805Z,5.03
2022-12-22T12:17:02.964Z,5.22
2022-12-22T12:19:36.861Z,4.80
2022-12-22T12:22:10.402Z,4.97
2022-12-22T12:25:02.673Z,5.50
2022-12-22T12:28:10.727Z,6.07
2022-12-22T12:30:52.044Z,6.75
2022-12-22T12:33:36.415Z,6.60
2022-12-22T12:36:14.933Z,7.38
2022-12-22T12:39:08.453Z,7.18
2022-12-22T12:41:48.342Z,8.20
2022-12-22T12:44:21.208Z,7.65
2022-12-22T12:46:50.815Z,7.70
2022-12-22T12:49:36.025Z,7.82
2022-12-22T12:52:12.498Z,7.25
2022-12-22T12:54:47.252Z,7.53
2022-12-22T12:57:24.557Z,7.70
2022-12-22T12:59:53.574Z,7.18
2022-12-22T13:02:37.732Z,6.72
2022-12-22T13:05:33.435Z,7.47
2022-12-22T13:08:12.352Z,7.18
2022-12-22T13:10:50.209Z,7.00
2022-12-22T13:13:22.774Z,7.15
2022-12-22T13:16:04.491Z,6.78
2022-12-22T13:18:34.010Z,6.65
2022-12-22T13:21:50.296Z,7.15
2022-12-22T13:24:27.818Z,6.22
2022-12-22T13:27:01.742Z,6.75
2022-12-22T13:29:49.194Z,7.18
2022-12-22T13:32:19.122Z,7.53
2022-12-22T13:35:28.920Z,7.35
2022-12-22T13:37:46.361Z,7.28
2022-12-22T13:40:25.374Z,8.02
2022-12-22T13:43:04.190Z,8.45
2022-12-22T13:45:43.527Z,9.00
2022-12-22T13:48:18.603Z,8.63
2022-12-22T13:50:51.642Z,9.10
2022-12-22T13:56:22.705Z,10.43
2022-12-22T13:58:57.348Z,9.73
2022-12-22T14:01:24.307Z,9.60
2022-12-22T14:04:00.835Z,9.95
2022-12-22T14:06:34.604Z,10.75
2022-12-22T14:09:20.760Z,10.07
2022-12-22T14:11:57.857Z,9.95
2022-12-22T14:14:28.131Z,9.45
2022-12-22T14:16:58.087Z,8.60
2022-12-22T14:19:26.676Z,8.40
2022-12-22T14:22:02.326Z,7.00
2022-12-22T14:24:38.071Z,7.97
2022-12-22T14:27:06.735Z,8.23
2022-12-22T14:29:33.433Z,8.43
2022-12-22T14:32:05.173Z,9.05
2022-12-22T14:34:33.914Z,9.02
2022-12-22T14:37:01.975Z,8.85
2022-12-22T14:39:31.960Z,9.30
2022-12-22T14:42:01.834Z,9.30
2022-12-22T14:44:35.455Z,9.32
2022-12-22T14:47:17.844Z,9.80
2022-12-22T14:50:06.228Z,10.82
2022-12-22T14:52:44.150Z,10.15
2022-12-22T14:55:32.568Z,9.73
2022-12-22T14:58:04.569Z,9.57
2022-12-22T15:00:33.368Z,10.75
2022-12-22T15:03:33.080Z,10.18
2022-12-22T15:06:34.246Z,10.65
2022-12-22T15:09:08.805Z,11.68
2022-12-22T15:11:38.943Z,10.88
2022-12-22T15:14:05.704Z,10.20
2022-12-22T15:16:32.337Z,10.35
2022-12-22T15:18:58.968Z,9.57
2022-12-22T15:21:25.518Z,10.20
2022-12-22T15:23:51.998Z,9.95
2022-12-22T15:26:18.622Z,8.77
2022-12-22T15:28:45.265Z,9.10
2022-12-22T15:31:15.762Z,9.05
2022-12-22T15:33:43.666Z,9.18
2022-12-22T15:36:12.352Z,11.07
2022-12-22T15:38:39.547Z,10.68
2022-12-22T15:41:07.330Z,12.20
2022-12-22T15:46:22.557Z,13.88
2022-12-22T15:48:49.375Z,11.88
2022-12-22T15:51:22.608Z,11.13
2022-12-22T15:53:49.242Z,11.65
2022-12-22T15:56:21.446Z,10.65
2022-12-22T15:58:48.963Z,10.73
2022-12-22T16:01:15.913Z,9.13
2022-12-22T16:03:42.584Z,9.70
2022-12-22T16:06:18.946Z,10.27
2022-12-22T16:08:51.988Z,10.05
2022-12-22T16:11:19.338Z,9.55
2022-12-22T16:13:47.222Z,8.98
2022-12-22T16:16:13.885Z,9.52
2022-12-22T16:18:40.780Z,9.35
2022-12-22T16:21:19.027Z,7.95
2022-12-22T16:23:49.476Z,8.65
2022-12-22T16:26:19.203Z,8.68
2022-12-22T16:28:47.125Z,7.68
2022-12-22T16:31:24.938Z,6.90
2022-12-22T16:33:51.702Z,7.00
2022-12-22T16:36:18.820Z,7.10
2022-12-22T16:38:46.028Z,7.35
2022-12-22T16:41:25.703Z,7.68
2022-12-22T16:44:05.459Z,6.63
2022-12-22T16:46:36.368Z,6.88
2022-12-22T16:49:06.621Z,6.53
2022-12-22T16:51:34.148Z,6.60
2022-12-22T16:54:01.908Z,6.60
2022-12-22T16:56:30.395Z,7.30
2022-12-22T16:58:57.497Z,6.95
2022-12-22T17:01:41.364Z,7.55
2022-12-22T17:04:13.531Z,6.78
2022-12-22T17:06:41.310Z,7.30
2022-12-22T17:09:23.080Z,7.03
2022-12-22T17:11:50.037Z,6.60
2022-12-22T17:14:33.046Z,6.45
2022-12-22T17:17:00.158Z,6.03
2022-12-22T17:19:26.777Z,5.70
2022-12-22T17:21:55.018Z,6.18
2022-12-22T17:24:28.182Z,6.13
2022-12-22T17:27:00.908Z,6.10
2022-12-22T17:29:28.220Z,6.18
2022-12-22T17:31:56.673Z,6.75
2022-12-22T17:34:24.163Z,6.20
2022-12-22T17:36:51.660Z,6.32
2022-12-22T17:39:23.402Z,6.70
2022-12-22T17:41:56.392Z,5.78
2022-12-22T17:44:25.679Z,6.43
2022-12-22T17:46:52.593Z,5.75
2022-12-22T17:49:22.012Z,6.18
2022-12-22T17:51:48.826Z,5.93
2022-12-22T17:54:24.051Z,6.03
2022-12-22T17:56:51.019Z,6.20
2022-12-22T17:59:17.614Z,6.57
2022-12-22T18:01:44.405Z,6.20
2022-12-22T18:04:11.283Z,5.72
2022-12-22T18:06:42.787Z,6.30
2022-12-22T18:09:20.424Z,5.90
2022-12-22T18:11:47.130Z,5.70
2022-12-22T18:14:14.543Z,5.38
2022-12-22T18:16:42.378Z,5.65
2022-12-22T18:19:09.158Z,5.63
2022-12-22T18:21:35.896Z,5.45
2022-12-22T18:24:03.692Z,5.25
2022-12-22T18:26:31.190Z,5.45
2022-12-22T18:28:58.149Z,5.25
2022-12-22T18:31:25.602Z,5.18
2022-12-22T18:33:52.636Z,5.10
2022-12-22T18:36:31.106Z,4.80
2022-12-22T18:38:59.259Z,5.00
2022-12-22T18:41:27.104Z,5.57
2022-12-22T18:43:53.822Z,5.25
2022-12-22T18:46:20.774Z,5.40
2022-12-22T18:48:48.305Z,5.20
2022-12-22T18:51:21.110Z,6.63
2022-12-22T18:53:49.176Z,5.80
2022-12-22T18:56:15.913Z,6.07
2022-12-22T18:58:43.055Z,5.63
2022-12-22T19:01:27.095Z,4.78
2022-12-22T19:03:56.712Z,5.32
2022-12-22T19:06:24.366Z,5.63
2022-12-22T19:08:51.803Z,5.63
2022-12-22T19:11:27.523Z,5.47
2022-12-22T19:13:54.181Z,5.97
2022-12-22T19:16:25.799Z,5.93
2022-12-22T19:18:52.568Z,6.32
2022-12-22T19:21:19.992Z,6.00
2022-12-22T19:23:49.170Z,5.75
2022-12-22T19:26:25.305Z,6.32
2022-12-22T19:28:55.912Z,6.20
2022-12-22T19:31:25.787Z,6.25
2022-12-22T19:33:53.624Z,6.55
2022-12-22T19:36:26.391Z,7.22
2022-12-22T19:39:04.352Z,6.35
2022-12-22T19:41:47.882Z,6.60
2022-12-22T19:44:19.711Z,6.88
2022-12-22T19:46:47.495Z,7.95
2022-12-22T19:49:20.478Z,7.20
2022-12-22T19:51:47.082Z,7.97
2022-12-22T19:54:17.112Z,8.23
2022-12-22T19:56:48.726Z,7.82
2022-12-22T19:59:40.784Z,7.65
2022-12-22T20:02:27.044Z,7.88
2022-12-22T20:04:54.906Z,8.23
2022-12-22T20:07:23.829Z,6.63
2022-12-22T20:09:51.018Z,7.97
2022-12-22T20:12:34.347Z,7.72
2022-12-22T20:15:02.477Z,7.72
2022-12-22T20:17:29.042Z,7.90
2022-12-22T20:19:55.763Z,7.10
2022-12-22T20:22:23.863Z,8.00
2022-12-22T20:24:51.872Z,7.78
2022-12-22T20:27:34.823Z,7.78
2022-12-22T20:30:01.709Z,7.40
2022-12-22T20:32:28.893Z,8.05
2022-12-22T20:34:56.348Z,7.95
2022-12-22T20:37:25.438Z,8.02
2022-12-22T20:39:52.029Z,8.02
2022-12-22T20:42:21.247Z,8.57
2022-12-22T20:45:04.203Z,7.90
2022-12-22T20:47:33.123Z,8.13
2022-12-22T20:49:59.695Z,8.23
2022-12-22T20:52:26.667Z,7.55
2022-12-22T20:54:53.334Z,8.20
2022-12-22T20:57:21.572Z,8.63
2022-12-22T20:59:53.909Z,8.55
2022-12-22T21:02:27.987Z,8.50
2022-12-22T21:04:55.535Z,7.97
2022-12-22T21:07:22.534Z,8.68
2022-12-22T21:09:49.170Z,9.45
2022-12-22T21:12:15.738Z,9.35
2022-12-22T21:14:42.177Z,8.35
2022-12-22T21:17:19.587Z,8.77
2022-12-22T21:19:46.644Z,8.15
2022-12-22T21:22:13.859Z,8.20
2022-12-22T21:24:41.972Z,8.05
2022-12-22T21:27:16.570Z,8.27
2022-12-22T21:29:43.494Z,9.23
2022-12-22T21:32:13.799Z,8.63
2022-12-22T21:34:40.916Z,8.93
2022-12-22T21:37:15.022Z,9.75
2022-12-22T21:39:44.904Z,10.98
2022-12-22T21:42:18.603Z,10.48
2022-12-22T21:44:45.715Z,9.85
2022-12-22T21:47:14.382Z,8.75
2022-12-22T21:49:40.963Z,9.35
2022-12-22T21:52:07.585Z,8.82
2022-12-22T21:54:37.405Z,9.70
2022-12-22T21:57:04.303Z,8.68
2022-12-22T21:59:31.654Z,8.32
2022-12-22T22:01:58.619Z,7.93
2022-12-22T22:04:25.713Z,7.65
2022-12-22T22:06:52.251Z,6.90
2022-12-22T22:09:19.148Z,7.47
2022-12-22T22:12:04.426Z,7.47
2022-12-22T22:14:30.976Z,7.10
2022-12-22T22:16:57.609Z,6.72
2022-12-22T22:19:24.243Z,7.60
2022-12-22T22:21:50.701Z,6.85
2022-12-22T22:24:17.744Z,7.45
2022-12-22T22:26:46.266Z,6.97
2022-12-22T22:29:13.119Z,7.07
2022-12-22T22:31:40.382Z,7.07
2022-12-22T22:34:07.308Z,6.72
2022-12-22T22:36:33.827Z,6.70
2022-12-22T22:39:00.516Z,7.72
2022-12-22T22:41:28.488Z,7.15
2022-12-22T22:43:55.186Z,7.15
2022-12-22T22:46:21.774Z,7.03
2022-12-22T22:48:48.652Z,7.50
2022-12-22T22:51:15.147Z,7.38
2022-12-22T22:53:42.070Z,8.02
2022-12-22T22:56:09.248Z,8.27
2022-12-22T22:58:35.863Z,8.35
2022-12-22T23:01:10.913Z,8.27
2022-12-22T23:03:38.116Z,8.75
2022-12-22T23:06:07.893Z,8.57
2022-12-22T23:08:34.927Z,8.80
2022-12-22T23:11:02.449Z,9.32
2022-12-22T23:13:29.541Z,7.65
2022-12-22T23:15:57.889Z,7.55
2022-12-22T23:18:24.899Z,7.57
2022-12-22T23:20:51.729Z,7.30
2022-12-22T23:23:19.286Z,7.65
2022-12-22T23:25:49.241Z,7.03
2022-12-22T23:28:16.728Z,7.35
2022-12-22T23:30:45.774Z,7.50
2022-12-22T23:33:12.243Z,6.65
2022-12-22T23:35:40.563Z,7.15
2022-12-22T23:38:08.887Z,7.63
2022-12-22T23:43:23.187Z,6.55
2022-12-22T23:45:49.780Z,7.13
2022-12-22T23:48:16.545Z,6.97
2022-12-22T23:50:46.360Z,6.82
2022-12-22T23:53:13.284Z,6.57
2022-12-22T23:55:49.742Z,6.47
2022-12-22T23:58:17.155Z,5.93
